Time;durP1;ratioP1;P1;durP2;ratioP2;P2;SDS_P1;SDS_P2;PMS_P1;PMS_P2;Temp;Humidity;BMP_temperature;BMP_pressure;BME280_temperature;BME280_humidity;BME280_pressure;Samples;Min_cycle;Max_cycle;Signal;HPM_P1;HPM_P2
2023/01/19 00:02:24;;;;;;;8.70;3.35;;;;;;;15.19;74.37;100978.09;4943528;28;20027;-88
2023/01/19 00:04:50;;;;;;;11.68;3.50;;;;;;;15.11;74.66;100963.75;4968049;28;20514;-88
2023/01/19 00:07:16;;;;;;;8.13;2.70;;;;;;;15.11;74.79;100960.22;4956743;28;20037;-88
2023/01/19 00:09:41;;;;;;;7.45;2.90;;;;;;;15.01;74.76;100949.38;4974160;28;20034;-87
2023/01/19 00:12:07;;;;;;;9.00;2.75;;;;;;;14.78;74.38;100900.25;4971510;28;20129;-87
2023/01/19 00:14:32;;;;;;;8.90;3.25;;;;;;;14.82;74.50;100907.44;4956030;28;20053;-88
2023/01/19 00:16:58;;;;;;;7.30;3.05;;;;;;;14.81;74.21;100910.88;4972391;28;20035;-87
2023/01/19 00:19:24;;;;;;;8.25;3.15;;;;;;;15.00;74.51;100946.66;4973289;28;20039;-87
2023/01/19 00:21:49;;;;;;;10.18;3.30;;;;;;;15.07;74.68;100964.50;4957272;28;20051;-87
2023/01/19 00:24:15;;;;;;;8.23;3.20;;;;;;;15.16;74.27;100977.09;4956755;28;20469;-87
2023/01/19 00:26:41;;;;;;;8.82;3.22;;;;;;;15.09;74.32;100962.81;4973265;28;20034;-87
2023/01/19 00:29:11;;;;;;;6.13;3.10;;;;;;;15.11;74.43;100966.38;4972748;28;20035;-87
2023/01/19 00:31:37;;;;;;;7.85;3.00;;;;;;;15.23;74.29;100976.50;4956423;28;20030;-88
2023/01/19 00:34:04;;;;;;;9.10;3.30;;;;;;;15.19;74.54;100977.22;4952520;28;20054;-88
2023/01/19 00:36:29;;;;;;;10.52;3.45;;;;;;;15.16;74.33;100977.09;4938796;28;20390;-87
2023/01/19 00:38:56;;;;;;;9.25;3.13;;;;;;;14.97;74.62;100944.81;4972456;28;20037;-88
2023/01/19 00:42:38;;;;;;;9.20;2.95;;;;;;;15.20;74.47;100986.91;4938522;28;20498;-88
2023/01/19 00:44:09;;;;;;;7.82;3.10;;;;;;;15.20;74.17;100990.44;4957240;28;20125;-88
2023/01/19 00:46:35;;;;;;;6.85;3.13;;;;;;;15.09;74.58;100982.94;4939257;28;20046;-87
2023/01/19 00:49:01;;;;;;;6.53;2.97;;;;;;;15.21;74.50;101004.47;4972725;28;20040;-88
2023/01/19 00:51:26;;;;;;;9.90;3.60;;;;;;;14.91;74.35;100935.81;4954300;28;20034;-88
2023/01/19 00:53:53;;;;;;;7.85;3.22;;;;;;;15.11;74.87;100976.91;4954267;28;20038;-88
2023/01/19 00:56:18;;;;;;;7.18;2.80;;;;;;;15.11;74.67;100981.28;4971325;28;20026;-88
2023/01/19 00:58:44;;;;;;;8.30;2.92;;;;;;;15.22;73.83;100987.88;4972299;28;20035;-87
2023/01/19 01:01:11;;;;;;;11.10;3.10;;;;;;;15.22;74.36;100995.75;4955876;28;20030;-88
2023/01/19 01:03:36;;;;;;;13.50;3.30;;;;;;;14.89;74.55;100925.22;4972062;28;20046;-88
2023/01/19 01:06:02;;;;;;;13.38;3.33;;;;;;;14.73;74.26;100896.53;4949296;28;20050;-87
2023/01/19 01:08:29;;;;;;;10.38;3.20;;;;;;;14.70;74.24;100878.03;4962431;28;20053;-87
2023/01/19 01:10:55;;;;;;;8.77;2.95;;;;;;;14.60;74.43;100864.50;4951349;28;20055;-87
2023/01/19 01:13:20;;;;;;;10.30;2.80;;;;;;;15.06;73.88;100934.66;4955372;28;20589;-87
2023/01/19 01:15:51;;;;;;;9.77;3.08;;;;;;;14.59;74.14;100851.31;4933171;28;20118;-88
2023/01/19 01:18:17;;;;;;;9.25;3.35;;;;;;;14.99;74.14;100915.97;4952604;28;20486;-88
2023/01/19 01:20:43;;;;;;;6.22;2.60;;;;;;;14.91;74.25;100899.00;4967734;28;20098;-87
2023/01/19 01:23:08;;;;;;;9.20;3.00;;;;;;;14.84;74.35;100885.59;4968183;28;20110;-88
2023/01/19 01:25:36;;;;;;;9.57;3.15;;;;;;;15.07;74.04;100922.41;4955562;28;20449;-88
2023/01/19 01:28:07;;;;;;;12.35;3.53;;;;;;;15.08;74.43;100934.72;4952310;28;20031;-88
2023/01/19 01:30:34;;;;;;;10.02;3.45;;;;;;;15.23;74.16;100952.81;4953273;28;20030;-87
2023/01/19 01:33:00;;;;;;;9.18;2.80;;;;;;;15.17;74.49;100940.31;4952781;28;20073;-87
2023/01/19 01:35:25;;;;;;;10.77;3.58;;;;;;;15.07;74.14;100925.94;4953269;28;20051;-87
2023/01/19 01:37:51;;;;;;;8.20;2.88;;;;;;;14.79;74.47;100879.25;4955714;28;20039;-87
2023/01/19 01:40:18;;;;;;;9.25;2.90;;;;;;;14.97;74.31;100902.75;4949386;28;20031;-87
2023/01/19 01:42:44;;;;;;;10.25;3.08;;;;;;;15.20;73.93;100948.34;4953990;28;20098;-86
2023/01/19 01:45:28;;;;;;;6.65;2.38;;;;;;;15.23;74.04;100956.34;4952311;28;20047;-87
2023/01/19 01:47:57;;;;;;;10.27;3.05;;;;;;;15.20;73.99;100963.25;4957072;28;20040;-86
2023/01/19 01:50:26;;;;;;;9.02;2.97;;;;;;;15.23;73.96;100964.22;4948864;28;20027;-86
2023/01/19 01:52:55;;;;;;;10.57;2.97;;;;;;;15.02;73.80;100935.38;4949210;28;20515;-87
2023/01/19 01:55:22;;;;;;;7.45;2.78;;;;;;;15.05;74.06;100942.50;4966899;28;20604;-87
2023/01/19 01:57:56;;;;;;;10.02;2.97;;;;;;;14.98;74.11;100929.94;4957952;28;20038;-87
2023/01/19 02:00:22;;;;;;;8.80;3.10;;;;;;;15.12;74.17;100968.19;4949169;28;20069;-86
2023/01/19 02:02:50;;;;;;;7.05;2.65;;;;;;;14.89;74.14;100932.22;4944318;28;20565;-86
2023/01/19 02:05:26;;;;;;;8.10;2.72;;;;;;;15.21;74.03;100984.31;4965511;28;20027;-86
2023/01/19 02:13:29;;;;;;;11.00;3.08;;;;;;;15.22;74.20;100975.59;4954764;28;20085;-87
2023/01/19 02:15:57;;;;;;;8.15;2.80;;;;;;;15.16;73.98;100963.94;4963819;28;20039;-87
2023/01/19 02:18:25;;;;;;;8.43;2.65;;;;;;;15.19;74.31;100979.84;4953877;28;20114;-87
2023/01/19 02:20:58;;;;;;;7.53;3.30;;;;;;;15.15;74.30;100967.41;4953135;28;20046;-88
2023/01/19 02:23:45;;;;;;;8.68;3.00;;;;;;;15.10;74.00;100966.34;4951740;28;20435;-87
2023/01/19 02:26:14;;;;;;;10.00;2.83;;;;;;;15.23;74.29;100971.22;4969230;28;20031;-87
2023/01/19 02:28:43;;;;;;;7.90;2.58;;;;;;;15.21;74.34;100971.16;4938252;28;20334;-88
2023/01/19 02:31:10;;;;;;;8.30;2.80;;;;;;;14.96;73.85;100923.72;4969917;28;20117;-87
2023/01/19 02:33:36;;;;;;;7.57;2.88;;;;;;;14.90;74.12;100919.13;4953486;28;20038;-87
2023/01/19 02:36:03;;;;;;;7.10;2.70;;;;;;;15.09;73.27;100954.00;4971077;28;20527;-87
2023/01/19 02:38:29;;;;;;;9.82;2.88;;;;;;;15.20;73.59;100974.66;4969369;28;20043;-87
2023/01/19 02:40:57;;;;;;;13.02;3.08;;;;;;;15.06;73.99;100955.69;4969730;28;20027;-87
2023/01/19 02:43:24;;;;;;;12.60;3.15;;;;;;;15.22;73.79;100980.88;4951411;28;20516;-87
2023/01/19 02:45:49;;;;;;;7.18;2.80;;;;;;;15.14;73.96;100960.38;4965194;28;20035;-87
2023/01/19 02:48:17;;;;;;;10.10;2.70;;;;;;;15.24;74.16;100976.56;4970300;28;20167;-88
2023/01/19 02:50:48;;;;;;;8.93;2.88;;;;;;;15.02;73.78;100943.25;4968484;28;20066;-87
2023/01/19 02:53:25;;;;;;;9.05;2.97;;;;;;;15.23;73.97;100973.84;4969577;28;20090;-87
2023/01/19 02:56:07;;;;;;;8.77;2.97;;;;;;;15.17;73.90;100952.56;4968029;28;20046;-87
2023/01/19 02:58:33;;;;;;;10.13;3.22;;;;;;;15.24;73.76;100963.41;4949771;28;20113;-87
2023/01/19 03:01:22;;;;;;;6.65;2.60;;;;;;;15.25;73.78;100972.19;4968741;28;20113;-87
2023/01/19 03:04:24;;;;;;;7.57;3.08;;;;;;;15.20;73.80;100969.38;4944726;28;20428;-86
2023/01/19 03:07:10;;;;;;;11.48;2.72;;;;;;;15.23;74.02;100976.50;4970394;28;20114;-88
2023/01/19 03:09:54;;;;;;;8.40;2.58;;;;;;;15.06;74.05;100944.28;4956936;28;20042;-88
2023/01/19 03:12:35;;;;;;;10.07;2.80;;;;;;;15.23;73.76;100980.00;4955983;28;20480;-87
2023/01/19 03:15:11;;;;;;;9.77;2.90;;;;;;;15.07;74.01;100961.88;4970452;28;20485;-89
2023/01/19 03:17:37;;;;;;;11.52;3.00;;;;;;;15.01;73.79;100944.09;4953189;28;20058;-85
2023/01/19 03:20:04;;;;;;;10.13;3.20;;;;;;;15.11;74.32;100963.75;4974704;28;20081;-86
2023/01/19 03:22:31;;;;;;;8.48;2.60;;;;;;;15.20;73.73;100990.44;4955687;28;20035;-88
2023/01/19 03:24:58;;;;;;;10.18;3.13;;;;;;;15.00;73.56;100951.94;4972016;28;20550;-86
2023/01/19 03:27:26;;;;;;;11.60;3.15;;;;;;;15.22;74.02;100994.03;4954719;28;20393;-87
2023/01/19 03:30:06;;;;;;;8.20;2.60;;;;;;;15.26;73.47;101000.28;4952804;28;20031;-86
2023/01/19 03:32:54;;;;;;;8.93;2.97;;;;;;;14.83;73.70;100927.59;4951758;28;20110;-85
2023/01/19 03:35:21;;;;;;;10.57;3.10;;;;;;;15.25;74.08;100999.38;4968611;28;20035;-86
2023/01/19 03:37:49;;;;;;;9.43;2.85;;;;;;;15.25;74.14;101001.13;4955405;28;20066;-86
2023/01/19 03:40:15;;;;;;;8.88;2.80;;;;;;;15.10;74.05;100969.88;4940912;28;20066;-86
2023/01/19 03:42:41;;;;;;;8.45;2.97;;;;;;;15.18;73.64;100999.09;4953632;28;20062;-86
2023/01/19 03:45:07;;;;;;;;;;;;;;;15.27;73.19;101008.22;4956091;28;20053;-87
2023/01/19 03:47:33;;;;;;;10.80;3.00;;;;;;;14.89;73.82;100951.50;4956204;28;19918;-86
2023/01/19 03:50:01;;;;;;;9.50;2.83;;;;;;;15.23;73.86;101015.97;4970778;28;20062;-86
2023/01/19 03:52:34;;;;;;;8.18;2.92;;;;;;;15.12;74.03;100988.34;4968277;28;20062;-87
2023/01/19 03:55:04;;;;;;;8.07;2.53;;;;;;;15.11;73.57;100981.28;4971827;28;20031;-87
2023/01/19 03:57:29;;;;;;;8.63;2.85;;;;;;;15.13;73.93;100976.97;4973012;28;20031;-88
2023/01/19 03:59:55;;;;;;;9.73;2.97;;;;;;;15.24;73.67;100991.47;4953912;28;20039;-87
2023/01/19 04:02:22;;;;;;;6.20;2.70;;;;;;;15.06;73.99;100968.84;4970814;28;20043;-86
2023/01/19 04:04:48;;;;;;;5.57;2.50;;;;;;;15.10;74.00;100974.22;4955687;28;20111;-86
2023/01/19 04:07:13;;;;;;;7.60;2.95;;;;;;;15.07;73.97;100977.66;4954540;28;20026;-86
2023/01/19 04:09:39;;;;;;;8.25;2.50;;;;;;;15.09;73.95;100988.22;4953824;28;20496;-86
2023/01/19 04:12:05;;;;;;;6.07;2.72;;;;;;;14.73;73.65;100929.00;4952787;28;20049;-86
2023/01/19 04:14:31;;;;;;;5.60;2.40;;;;;;;15.01;74.27;100977.41;4970836;28;20066;-86
2023/01/19 04:16:56;;;;;;;7.32;2.67;;;;;;;15.18;74.29;101007.88;4952930;28;20488;-86
2023/01/19 04:19:22;;;;;;;7.13;2.90;;;;;;;15.04;74.26;100983.66;4970592;28;20049;-86
2023/01/19 04:21:49;;;;;;;8.75;2.78;;;;;;;15.12;73.66;100988.34;4972446;28;20034;-87
2023/01/19 04:24:15;;;;;;;8.35;2.65;;;;;;;15.16;73.67;101004.31;4966529;28;20042;-87
2023/01/19 04:26:41;;;;;;;8.77;2.40;;;;;;;15.18;73.96;101013.16;4955498;28;20050;-89
2023/01/19 04:29:07;;;;;;;6.80;2.30;;;;;;;15.16;73.69;101008.69;4956286;28;20508;-88
2023/01/19 04:31:34;;;;;;;8.27;2.47;;;;;;;15.13;73.93;101001.53;4969212;28;20114;-87
2023/01/19 04:34:00;;;;;;;5.80;2.70;;;;;;;14.84;73.68;100961.84;4954532;28;20038;-88
2023/01/19 04:36:27;;;;;;;;;;;;;;;15.26;73.27;101023.94;4956197;28;20027;-86
2023/01/19 04:38:52;;;;;;;7.20;2.50;;;;;;;15.12;73.41;101009.38;4955602;28;19972;-87
2023/01/19 04:41:18;;;;;;;6.95;2.70;;;;;;;14.90;73.73;100965.53;4956205;28;20027;-87
2023/01/19 04:43:43;;;;;;;9.20;2.67;;;;;;;15.15;73.56;101020.00;4973505;28;20595;-87
2023/01/19 04:46:09;;;;;;;6.95;2.55;;;;;;;15.24;73.17;101021.28;4973607;28;20050;-88
2023/01/19 04:48:35;;;;;;;9.85;3.08;;;;;;;14.90;73.69;100971.72;4954891;28;20037;-87
2023/01/19 04:51:00;;;;;;;8.07;2.83;;;;;;;14.92;73.56;100970.06;4956341;28;20458;-87
2023/01/19 04:53:26;;;;;;;9.88;2.63;;;;;;;14.82;73.48;100967.91;4955880;28;20062;-87
2023/01/19 04:55:53;;;;;;;11.13;3.10;;;;;;;14.96;73.24;100992.09;4955615;28;20038;-88
2023/01/19 04:58:19;;;;;;;8.93;2.50;;;;;;;15.16;73.70;101016.56;4956403;28;20480;-87
2023/01/19 05:00:45;;;;;;;6.75;2.55;;;;;;;15.08;73.11;101005.72;4939414;28;20030;-87
2023/01/19 05:03:10;;;;;;;11.55;3.20;;;;;;;15.19;72.97;101029.81;4955994;28;20034;-87
2023/01/19 05:05:36;;;;;;;11.65;3.13;;;;;;;15.20;73.28;101036.91;4973295;28;20416;-88
2023/01/19 05:08:03;;;;;;;7.30;2.53;;;;;;;14.89;73.04;100979.53;4970880;28;20049;-87
2023/01/19 05:10:28;;;;;;;12.43;3.60;;;;;;;15.04;73.19;100988.03;4954182;28;20035;-88
2023/01/19 05:12:54;;;;;;;8.93;2.65;;;;;;;14.99;73.34;100977.34;4971303;28;20093;-86
2023/01/19 05:15:20;;;;;;;9.65;2.65;;;;;;;14.98;73.70;100970.25;4971649;28;20106;-86
2023/01/19 05:17:45;;;;;;;15.40;3.63;;;;;;;15.01;72.96;100990.56;4950166;28;20023;-84
2023/01/19 05:20:12;;;;;;;10.52;2.70;;;;;;;15.23;73.44;101019.47;4964870;28;20035;-87
2023/01/19 05:22:38;;;;;;;11.07;2.90;;;;;;;14.97;73.32;100970.22;4951947;28;20035;-88
2023/01/19 05:25:07;;;;;;;12.50;2.85;;;;;;;15.06;73.43;100989.00;4955425;28;20035;-87
2023/01/19 05:27:33;;;;;;;11.07;3.13;;;;;;;14.88;73.22;100962.88;4969687;28;20023;-87
2023/01/19 05:29:59;;;;;;;10.23;3.13;;;;;;;15.22;73.10;101020.31;4939250;28;20081;-87
2023/01/19 05:32:24;;;;;;;11.65;3.00;;;;;;;15.19;73.04;101012.28;4938081;28;20496;-89
2023/01/19 05:34:50;;;;;;;10.98;3.42;;;;;;;14.98;73.16;100999.19;4955960;28;20122;-87
2023/01/19 05:37:16;;;;;;;13.32;3.10;;;;;;;14.97;73.09;100983.38;4955025;28;20029;-86
2023/01/19 05:39:41;;;;;;;10.77;2.97;;;;;;;15.14;73.32;101012.97;4953723;28;20031;-86
2023/01/19 05:42:07;;;;;;;13.23;3.60;;;;;;;15.23;73.06;101027.38;4955136;28;20407;-86
2023/01/19 05:44:33;;;;;;;9.57;3.05;;;;;;;14.96;73.02;100978.94;4971523;28;20035;-87
2023/01/19 05:46:59;;;;;;;13.93;3.20;;;;;;;15.17;73.37;101015.72;4955181;28;20096;-87
2023/01/19 05:49:24;;;;;;;10.25;2.95;;;;;;;15.16;73.31;101006.03;4971613;28;20113;-87
2023/01/19 05:51:50;;;;;;;10.73;3.05;;;;;;;14.93;73.06;100976.19;4954048;28;20972;-87
2023/01/19 05:54:16;;;;;;;10.07;3.33;;;;;;;14.74;73.15;100957.06;4954706;28;20050;-87
2023/01/19 05:56:41;;;;;;;11.00;3.08;;;;;;;14.83;73.30;100977.56;4953931;28;20043;-86
2023/01/19 05:59:07;;;;;;;9.93;2.88;;;;;;;14.83;73.42;100985.44;4971607;28;20049;-86
2023/01/19 06:01:37;;;;;;;10.73;3.22;;;;;;;14.81;73.30;100987.13;4971313;28;20047;-85
2023/01/19 06:04:03;;;;;;;8.27;3.05;;;;;;;15.00;73.36;101015.94;4949375;28;20054;-86
2023/01/19 06:06:30;;;;;;;9.95;3.10;;;;;;;15.19;73.30;101049.13;4954021;28;20027;-86
2023/01/19 06:08:55;;;;;;;8.85;3.05;;;;;;;15.07;73.38;101044.28;4956255;28;20073;-87
2023/01/19 06:11:21;;;;;;;7.97;3.15;;;;;;;14.85;73.29;101002.19;4947571;28;20079;-86
2023/01/19 06:13:47;;;;;;;9.55;3.05;;;;;;;15.26;73.16;101066.03;4951799;28;20054;-86
2023/01/19 06:16:13;;;;;;;12.77;3.25;;;;;;;14.89;72.92;100995.31;4966703;28;20027;-85
2023/01/19 06:18:39;;;;;;;6.38;3.15;;;;;;;14.98;72.97;101019.34;4961193;28;20098;-85
2023/01/19 06:21:06;;;;;;;10.32;2.95;;;;;;;15.25;73.04;101053.75;4962483;28;20040;-86
2023/01/19 06:23:33;;;;;;;13.00;2.95;;;;;;;15.25;73.24;101054.63;4962287;28;20521;-87
2023/01/19 06:25:59;;;;;;;16.70;3.10;;;;;;;15.05;73.72;101030.19;4950738;28;21330;-86
2023/01/19 06:28:25;;;;;;;8.05;3.00;;;;;;;14.99;72.74;101010.63;4946125;28;20127;-86
2023/01/19 06:30:52;;;;;;;10.15;2.90;;;;;;;15.03;73.50;101028.34;4963649;28;20035;-87
2023/01/19 06:33:18;;;;;;;12.63;3.13;;;;;;;14.98;74.01;101029.88;4965246;28;20031;-86
2023/01/19 06:35:46;;;;;;;12.05;3.25;;;;;;;15.16;73.82;101071.81;4951744;28;20042;-87
2023/01/19 06:38:16;;;;;;;10.98;3.10;;;;;;;14.97;73.14;101031.59;4950316;28;20043;-86
2023/01/19 06:40:43;;;;;;;16.05;3.45;;;;;;;15.06;73.06;101060.00;4949881;28;20414;-86
2023/01/19 06:43:08;;;;;;;;;;;;;;;15.20;72.77;101097.41;4967559;28;20032;-87
2023/01/19 06:45:34;;;;;;;10.32;2.65;;;;;;;15.18;73.24;101096.44;4968943;28;19930;-86
2023/01/19 06:48:00;;;;;;;17.33;3.42;;;;;;;15.14;73.17;101084.00;4955207;28;20047;-88
2023/01/19 06:50:26;;;;;;;10.50;3.10;;;;;;;14.81;73.05;101016.03;4955363;28;20031;-88
2023/01/19 06:52:52;;;;;;;13.68;3.10;;;;;;;14.88;73.21;101035.59;4957359;28;20031;-87
2023/01/19 06:55:17;;;;;;;11.70;3.40;;;;;;;15.10;73.03;101085.59;4968888;28;20024;-86
2023/01/19 06:57:43;;;;;;;15.48;3.60;;;;;;;14.91;73.10;101049.75;4964863;28;20050;-89
2023/01/19 07:00:11;;;;;;;12.35;3.65;;;;;;;15.19;73.00;101106.13;4954653;28;20038;-89
2023/01/19 07:02:41;;;;;;;13.25;3.10;;;;;;;15.02;73.68;101071.22;4959680;28;20031;-89
2023/01/19 07:05:08;;;;;;;10.80;3.13;;;;;;;15.18;73.56;101102.59;4969971;28;20118;-86
2023/01/19 07:07:34;;;;;;;11.63;3.40;;;;;;;15.03;73.13;101080.94;4955667;28;20023;-86
2023/01/19 07:10:00;;;;;;;10.82;3.25;;;;;;;15.12;73.17;101096.19;4967868;28;20027;-86
2023/01/19 07:12:25;;;;;;;14.70;3.55;;;;;;;15.01;73.26;101080.88;4969407;28;20518;-86
2023/01/19 07:14:51;;;;;;;13.18;3.65;;;;;;;15.12;73.15;101111.97;4972566;28;20542;-86
2023/01/19 07:17:17;;;;;;;13.40;3.80;;;;;;;15.11;72.59;101103.16;4973473;28;20031;-85
2023/01/19 07:19:43;;;;;;;8.20;3.03;;;;;;;15.22;72.91;101128.19;4956213;28;20031;-87
2023/01/19 07:22:09;;;;;;;15.23;3.08;;;;;;;14.94;73.37;101086.69;4980998;28;20534;-86
2023/01/19 07:24:34;;;;;;;10.52;3.50;;;;;;;15.14;72.80;101121.72;4976871;28;20033;-87
2023/01/19 07:27:00;;;;;;;11.20;3.40;;;;;;;14.95;73.26;101087.59;4974492;28;20078;-87
2023/01/19 07:29:26;;;;;;;9.77;2.92;;;;;;;15.05;72.49;101105.56;4975599;28;20068;-87
2023/01/19 07:31:55;;;;;;;8.95;3.00;;;;;;;15.03;72.76;101108.13;4956937;28;20183;-86
2023/01/19 07:34:22;;;;;;;12.50;3.20;;;;;;;15.19;73.21;101150.84;4974437;28;20030;-86
2023/01/19 07:36:47;;;;;;;10.90;3.35;;;;;;;14.79;73.15;101083.44;4974530;28;20034;-87
2023/01/19 07:39:13;;;;;;;11.13;3.05;;;;;;;15.01;73.26;101119.44;4974238;28;20058;-87
2023/01/19 07:41:39;;;;;;;14.05;3.17;;;;;;;14.91;73.37;101097.09;4957170;28;20045;-88
2023/01/19 07:44:04;;;;;;;11.55;3.10;;;;;;;14.82;72.91;101094.97;4969889;28;20165;-89
2023/01/19 07:46:30;;;;;;;17.80;3.97;;;;;;;14.89;72.85;101108.38;4973982;28;20035;-89
2023/01/19 07:48:55;;;;;;;12.10;3.92;;;;;;;15.11;73.26;101139.97;4974046;28;20030;-88
2023/01/19 07:51:21;;;;;;;14.88;3.45;;;;;;;15.23;72.99;101160.66;4956596;28;20035;-88
2023/01/19 07:53:49;;;;;;;13.05;2.95;;;;;;;15.08;72.55;101145.13;4971962;28;20119;-87
2023/01/19 07:56:15;;;;;;;11.45;3.45;;;;;;;15.21;72.76;101164.94;4972686;28;20083;-87
2023/01/19 07:58:40;;;;;;;11.20;3.42;;;;;;;15.09;73.26;101143.38;4954422;28;20089;-87
2023/01/19 08:01:11;;;;;;;11.45;3.45;;;;;;;15.05;73.21;101132.75;4957114;28;20523;-89
2023/01/19 08:03:37;;;;;;;15.40;3.38;;;;;;;15.17;72.80;101153.41;4945385;28;20026;-87
2023/01/19 08:06:04;;;;;;;14.98;3.55;;;;;;;15.01;72.82;101122.94;4941053;28;20046;-89
2023/01/19 08:08:31;;;;;;;14.88;3.60;;;;;;;15.24;73.03;101168.63;4973067;28;20027;-88
2023/01/19 08:10:56;;;;;;;12.38;3.53;;;;;;;15.08;72.88;101142.50;4953598;28;20670;-88
2023/01/19 08:13:23;;;;;;;13.98;3.70;;;;;;;14.97;72.57;101117.50;4962260;28;20059;-88
2023/01/19 08:15:51;;;;;;;10.82;3.28;;;;;;;15.29;72.95;101174.06;4946055;28;20036;-88
2023/01/19 08:18:16;;;;;;;14.32;3.67;;;;;;;15.27;71.91;101174.00;4954166;28;20539;-88
2023/01/19 08:20:42;;;;;;;14.77;3.72;;;;;;;15.32;71.74;101178.56;4953713;28;20039;-89
2023/01/19 08:23:08;;;;;;;13.60;3.70;;;;;;;15.27;72.61;101181.00;4952859;28;20433;-88
2023/01/19 08:25:41;;;;;;;14.52;3.30;;;;;;;14.99;72.16;101136.88;4953573;28;20102;-86
2023/01/19 08:28:07;;;;;;;10.18;3.42;;;;;;;15.21;71.63;101176.38;4953786;28;20525;-89
2023/01/19 08:30:34;;;;;;;19.13;3.72;;;;;;;15.28;72.12;101188.03;4962087;28;20108;-88
2023/01/19 08:33:06;;;;;;;15.10;3.80;;;;;;;15.30;71.60;101190.75;4945066;28;20031;-88
2023/01/19 08:35:43;;;;;;;13.65;4.10;;;;;;;15.32;71.55;101191.69;4968035;28;20035;-88
2023/01/19 08:38:09;;;;;;;20.73;4.30;;;;;;;15.13;71.55;101175.16;4953284;28;20069;-88
2023/01/19 08:40:39;;;;;;;14.07;3.50;;;;;;;15.01;71.33;101154.50;4968910;28;20042;-87
2023/01/19 08:43:07;;;;;;;13.98;4.00;;;;;;;15.31;71.77;101203.97;4969596;28;20035;-88
2023/01/19 08:45:34;;;;;;;17.90;3.83;;;;;;;15.31;72.28;101201.34;4969510;28;20386;-89
2023/01/19 08:48:00;;;;;;;16.40;3.97;;;;;;;15.06;72.04;101154.69;4960037;28;20022;-87
2023/01/19 08:50:28;;;;;;;13.05;4.03;;;;;;;14.94;72.18;101133.13;4952688;28;20110;-90
2023/01/19 08:53:02;;;;;;;12.60;3.90;;;;;;;15.32;72.48;101202.22;4952982;28;20142;-88
2023/01/19 08:55:30;;;;;;;18.27;3.83;;;;;;;15.10;72.35;101164.50;4953965;28;20023;-89
2023/01/19 08:57:56;;;;;;;15.10;3.80;;;;;;;15.07;72.09;101162.66;4955639;28;20715;-88
2023/01/19 09:00:26;;;;;;;14.85;4.00;;;;;;;15.24;72.90;101192.28;4953455;28;20034;-89
2023/01/19 09:02:52;;;;;;;12.50;3.58;;;;;;;15.32;72.12;101197.84;4948365;28;20032;-89
2023/01/19 09:05:19;;;;;;;15.18;4.18;;;;;;;15.33;72.19;101201.41;4937102;29;20038;-89
2023/01/19 09:07:46;;;;;;;12.90;3.70;;;;;;;15.21;72.36;101183.38;4950584;28;20062;-88
2023/01/19 09:10:14;;;;;;;14.20;3.72;;;;;;;15.33;72.46;101196.16;4969035;28;20405;-89
2023/01/19 09:12:40;;;;;;;13.30;4.03;;;;;;;15.30;72.40;101182.84;4952515;28;20055;-88
2023/01/19 09:15:06;;;;;;;13.27;3.88;;;;;;;15.25;72.18;101164.25;4974529;28;20037;-88
2023/01/19 09:17:32;;;;;;;13.20;3.65;;;;;;;15.32;72.59;101174.19;4974519;28;20046;-88
2023/01/19 09:19:58;;;;;;;10.73;4.00;;;;;;;15.36;72.60;101176.09;4944083;28;20418;-89
2023/01/19 09:22:24;;;;;;;16.00;3.80;;;;;;;15.36;72.58;101148.91;4968794;28;20424;-89
2023/01/19 09:24:50;;;;;;;11.00;3.42;;;;;;;15.27;72.66;101131.00;4952683;28;20058;-89
2023/01/19 09:27:17;;;;;;;15.50;4.32;;;;;;;15.30;72.60;101127.59;4938017;28;20115;-89
2023/01/19 09:29:51;;;;;;;13.75;3.65;;;;;;;15.20;72.60;101105.28;4953423;28;20027;-89
2023/01/19 09:32:18;;;;;;;13.23;3.65;;;;;;;15.23;72.84;101102.78;4954208;28;20150;-88
2023/01/19 09:34:45;;;;;;;12.70;3.85;;;;;;;15.22;72.72;101090.47;4950423;28;20027;-89
2023/01/19 09:37:11;;;;;;;13.55;3.80;;;;;;;15.32;72.62;101115.41;4968252;28;20031;-89
2023/01/19 09:39:37;;;;;;;12.18;3.35;;;;;;;15.29;72.78;101096.88;4953377;28;20114;-88
2023/01/19 09:42:31;;;;;;;13.60;3.60;;;;;;;15.22;72.82;101080.84;4952355;28;20031;-89
2023/01/19 09:44:56;;;;;;;15.35;3.83;;;;;;;15.29;72.31;101079.34;4952249;28;20065;-88
2023/01/19 09:47:28;;;;;;;15.30;3.92;;;;;;;15.30;72.30;101082.88;4958188;28;20103;-89
2023/01/19 09:49:58;;;;;;;13.07;3.20;;;;;;;15.27;72.27;101067.84;4968655;28;20031;-87
2023/01/19 09:52:24;;;;;;;15.32;3.30;;;;;;;15.39;71.81;101080.63;4948118;28;20030;-89
2023/01/19 09:54:56;;;;;;;13.82;3.30;;;;;;;15.27;72.60;101060.84;4968344;28;20563;-89
2023/01/19 09:57:24;;;;;;;18.67;3.63;;;;;;;15.20;72.04;101050.94;4973069;28;20030;-88
2023/01/19 09:59:50;;;;;;;13.68;3.55;;;;;;;15.40;72.28;101077.13;4952085;28;20081;-88
2023/01/19 10:02:24;;;;;;;;;;;;;;;15.40;72.63;101082.41;4965013;28;20086;-88
2023/01/19 10:05:00;;;;;;;18.20;4.00;;;;;;;15.41;72.21;101089.47;4953221;28;20411;-88
2023/01/19 10:07:37;;;;;;;17.05;3.60;;;;;;;15.38;72.65;101087.59;4950382;28;20031;-88
2023/01/19 10:10:03;;;;;;;13.52;3.80;;;;;;;15.43;72.85;101088.69;4957620;28;20034;-88
2023/01/19 10:12:53;;;;;;;13.95;3.60;;;;;;;15.46;72.34;101083.53;4967630;28;20050;-87
2023/01/19 10:15:25;;;;;;;11.43;3.75;;;;;;;15.48;72.44;101088.88;4969127;28;20467;-88
2023/01/19 10:17:59;;;;;;;12.40;3.60;;;;;;;15.53;72.38;101095.19;4950572;28;20417;-87
2023/01/19 10:20:35;;;;;;;12.90;4.05;;;;;;;15.55;71.93;101097.88;4958096;28;20015;-87
2023/01/19 10:23:04;;;;;;;14.30;3.83;;;;;;;15.57;71.84;101093.59;4949859;28;20026;-87
2023/01/19 10:25:31;;;;;;;11.95;3.63;;;;;;;15.51;72.21;101094.22;4953922;28;20023;-88
2023/01/19 10:27:58;;;;;;;;;;;;;;;15.55;72.48;101092.63;4956038;28;20030;-90
2023/01/19 10:30:26;;;;;;;17.58;4.15;;;;;;;15.39;72.06;101065.72;4955542;28;19918;-90
2023/01/19 10:32:52;;;;;;;11.88;3.35;;;;;;;15.55;72.04;101090.88;4952711;28;20102;-90
2023/01/19 10:35:23;;;;;;;13.70;3.42;;;;;;;15.72;71.43;101109.09;4964425;28;20702;-91
2023/01/19 10:37:57;;;;;;;13.52;4.00;;;;;;;15.42;71.84;101071.09;4956109;28;20085;-90
2023/01/19 10:40:46;;;;;;;15.25;3.28;;;;;;;15.64;71.79;101111.41;4973184;28;20113;-90
2023/01/19 10:43:31;;;;;;;16.00;3.70;;;;;;;15.66;71.76;101108.00;4955814;28;20459;-91
2023/01/19 10:46:28;;;;;;;14.32;3.63;;;;;;;15.59;71.83;101081.38;4964473;28;20030;-89
2023/01/19 10:48:54;;;;;;;13.60;3.47;;;;;;;15.65;71.78;101094.78;4950603;28;20038;-90
2023/01/19 10:51:20;;;;;;;17.02;3.28;;;;;;;15.60;71.65;101076.19;4955902;28;20038;-90
2023/01/19 10:53:59;;;;;;;15.50;3.40;;;;;;;15.72;71.59;101112.63;4971046;28;20034;-90
2023/01/19 10:56:30;;;;;;;16.42;3.58;;;;;;;15.72;72.21;101103.84;4952404;28;20058;-89
2023/01/19 10:58:58;;;;;;;15.57;3.47;;;;;;;15.71;72.58;101108.19;4943664;28;20027;-89
2023/01/19 11:01:27;;;;;;;12.40;3.08;;;;;;;15.71;72.08;101116.09;4938582;28;20049;-90
2023/01/19 11:03:58;;;;;;;15.20;3.47;;;;;;;15.58;71.78;101085.75;4955391;28;20085;-89
2023/01/19 11:06:29;;;;;;;11.02;3.10;;;;;;;15.51;72.08;101069.66;4929489;28;20034;-88
2023/01/19 11:09:17;;;;;;;14.05;3.35;;;;;;;15.78;71.81;101117.25;4954352;28;20030;-89
2023/01/19 11:11:46;;;;;;;12.73;3.80;;;;;;;15.66;72.25;101086.03;4961021;28;20050;-89
2023/01/19 11:14:19;;;;;;;16.08;3.45;;;;;;;15.74;72.37;101102.16;4936565;28;20091;-89
2023/01/19 11:16:47;;;;;;;13.57;3.40;;;;;;;15.69;72.26;101096.69;4937421;28;20032;-90
2023/01/19 11:19:39;;;;;;;9.60;2.80;;;;;;;15.73;72.80;101093.38;4940051;29;20060;-87
2023/01/19 11:22:14;;;;;;;10.27;3.47;;;;;;;15.79;72.23;101096.25;4929134;29;20040;-91
2023/01/19 11:24:42;;;;;;;17.95;3.72;;;;;;;15.64;71.44;101054.41;4934313;29;20035;-91
2023/01/19 11:27:08;;;;;;;18.83;3.78;;;;;;;15.70;71.73;101026.50;4952899;28;20135;-90
2023/01/19 11:29:35;;;;;;;11.23;2.70;;;;;;;15.70;71.74;101058.09;4934309;29;20028;-91
2023/01/19 11:32:20;;;;;;;15.10;3.60;;;;;;;15.76;71.05;101048.72;4915541;29;20501;-91
2023/01/19 11:34:46;;;;;;;12.63;3.38;;;;;;;15.91;71.19;101063.31;4947994;28;20031;-91